Time;durP1;ratioP1;P1;durP2;ratioP2;P2;SDS_P1;SDS_P2;PMS_P1;PMS_P2;Temp;Humidity;BMP_temperature;BMP_pressure;BME280_temperature;BME280_humidity;BME280_pressure;Samples;Min_cycle;Max_cycle;Signal;HPM_P1;HPM_P2
2023/09/06 00:00:42;;;;;;;13.70;6.78;;;;;;;16.02;100.00;101944.47;5033134;28;20258;-83
2023/09/06 00:03:08;;;;;;;9.35;7.20;;;;;;;16.02;100.00;101949.00;5032921;28;20061;-83
2023/09/06 00:05:33;;;;;;;9.55;7.28;;;;;;;16.03;100.00;101953.34;5032928;28;20394;-83
2023/09/06 00:07:59;;;;;;;13.82;7.93;;;;;;;16.02;100.00;101952.50;5032522;28;20033;-84
2023/09/06 00:10:24;;;;;;;13.13;8.57;;;;;;;16.00;100.00;101957.19;5032883;28;20397;-83
2023/09/06 00:12:49;;;;;;;10.63;7.68;;;;;;;15.98;100.00;101961.00;5032077;28;20120;-83
2023/09/06 00:15:15;;;;;;;11.75;8.40;;;;;;;15.95;100.00;101955.94;5032852;28;20072;-83
2023/09/06 00:17:41;;;;;;;10.82;7.15;;;;;;;15.93;100.00;101955.22;5031179;28;20061;-83
2023/09/06 00:20:20;;;;;;;7.68;6.82;;;;;;;15.89;100.00;101957.38;5032728;28;20036;-83
2023/09/06 00:22:57;;;;;;;11.63;7.32;;;;;;;15.88;100.00;101957.50;5032402;28;20034;-83
2023/09/06 00:25:25;;;;;;;9.90;6.53;;;;;;;15.87;100.00;101959.34;5032542;28;20025;-83
2023/09/06 00:27:50;;;;;;;9.85;7.50;;;;;;;15.84;100.00;101959.66;5032221;28;20033;-83
2023/09/06 00:30:18;;;;;;;11.73;6.40;;;;;;;15.82;100.00;101959.81;5032798;28;20113;-83
2023/09/06 00:32:44;;;;;;;9.52;6.72;;;;;;;15.79;100.00;101952.00;5032141;28;20055;-81
2023/09/06 00:35:09;;;;;;;10.77;6.88;;;;;;;15.76;100.00;101952.28;5015370;28;20432;-82
2023/09/06 00:37:36;;;;;;;9.02;7.00;;;;;;;15.75;100.00;101953.28;5032613;28;20037;-82
2023/09/06 00:40:09;;;;;;;10.07;7.82;;;;;;;15.71;100.00;101951.88;5031749;28;20211;-82
2023/09/06 00:42:35;;;;;;;11.88;6.90;;;;;;;15.68;100.00;101953.00;5032509;28;20037;-83
2023/09/06 00:45:00;;;;;;;12.73;6.72;;;;;;;15.65;100.00;101955.16;5031796;28;20393;-82
2023/09/06 00:47:26;;;;;;;12.38;7.43;;;;;;;15.63;100.00;101949.94;5032370;28;20083;-82
2023/09/06 00:49:51;;;;;;;9.50;7.05;;;;;;;15.60;100.00;101954.72;5031931;28;20100;-82
2023/09/06 00:52:17;;;;;;;8.73;6.63;;;;;;;15.56;100.00;101956.03;5031931;28;20045;-82
2023/09/06 00:54:43;;;;;;;10.85;6.35;;;;;;;15.53;100.00;101959.84;5032094;28;20462;-82
2023/09/06 00:57:08;;;;;;;9.90;7.15;;;;;;;15.50;100.00;101962.81;5031274;28;20142;-83
2023/09/06 00:59:34;;;;;;;9.07;7.00;;;;;;;15.47;100.00;101961.25;5030556;28;20079;-82
2023/09/06 01:02:00;;;;;;;8.45;6.85;;;;;;;15.45;100.00;101963.25;5031339;28;20045;-82
2023/09/06 01:04:25;;;;;;;10.52;6.75;;;;;;;15.44;100.00;101961.53;5031658;28;20466;-83
2023/09/06 01:06:58;;;;;;;11.55;7.40;;;;;;;15.42;100.00;101960.00;5030132;28;20036;-82
2023/09/06 01:09:24;;;;;;;9.20;7.15;;;;;;;15.39;100.00;101954.91;5032250;28;20034;-83
2023/09/06 01:11:49;;;;;;;10.07;7.72;;;;;;;15.36;100.00;101957.88;5031643;28;20485;-82
2023/09/06 01:14:14;;;;;;;8.88;7.30;;;;;;;15.33;100.00;101953.66;5031994;28;20480;-82
2023/09/06 01:16:44;;;;;;;9.73;8.00;;;;;;;15.34;100.00;101966.06;5031964;28;20030;-82
2023/09/06 01:19:12;;;;;;;12.30;7.70;;;;;;;15.31;100.00;101958.31;5031350;28;20122;-82
2023/09/06 01:21:58;;;;;;;10.93;8.20;;;;;;;15.30;100.00;101960.16;5033509;28;20182;-82
2023/09/06 01:24:24;;;;;;;10.15;7.90;;;;;;;15.26;100.00;101952.56;5035948;28;20025;-82
2023/09/06 01:26:50;;;;;;;11.13;8.13;;;;;;;15.28;100.00;101961.28;5035160;28;20129;-82
2023/09/06 01:29:17;;;;;;;10.23;8.75;;;;;;;15.26;100.00;101958.75;5034815;28;20549;-83
2023/09/06 01:31:43;;;;;;;11.43;8.70;;;;;;;15.26;100.00;101964.09;5035236;28;20036;-82
2023/09/06 01:34:08;;;;;;;10.55;8.00;;;;;;;15.21;100.00;101961.03;5034907;28;20388;-82
2023/09/06 01:36:33;;;;;;;18.95;9.77;;;;;;;15.20;100.00;101961.13;5035696;28;20033;-82
2023/09/06 01:38:59;;;;;;;12.60;8.35;;;;;;;15.20;100.00;101964.69;5033992;28;20068;-82
2023/09/06 01:41:24;;;;;;;13.73;9.38;;;;;;;15.20;100.00;101959.31;5035654;28;20381;-82
2023/09/06 01:43:53;;;;;;;15.88;10.00;;;;;;;15.19;100.00;101956.78;5035639;28;20458;-82
2023/09/06 01:46:20;;;;;;;13.43;9.38;;;;;;;15.19;100.00;101964.81;5035514;28;20048;-83
2023/09/06 01:48:46;;;;;;;13.88;10.02;;;;;;;15.16;100.00;101957.91;5035506;28;20029;-83
2023/09/06 01:51:13;;;;;;;14.32;9.55;;;;;;;15.15;100.00;101961.56;5034590;28;20041;-82
2023/09/06 01:53:38;;;;;;;12.38;9.60;;;;;;;15.13;100.00;101956.34;5035216;28;20034;-82
2023/09/06 01:56:04;;;;;;;14.00;9.00;;;;;;;15.12;100.00;101961.84;5033639;28;20386;-82
2023/09/06 01:58:32;;;;;;;13.45;9.88;;;;;;;15.09;100.00;101960.31;5035245;28;20025;-83
2023/09/06 02:00:58;;;;;;;12.10;9.38;;;;;;;15.09;100.00;101959.47;5034632;28;20082;-82
2023/09/06 02:03:25;;;;;;;14.55;9.20;;;;;;;15.07;100.00;101959.59;5035135;28;20129;-83
2023/09/06 02:05:50;;;;;;;13.07;8.85;;;;;;;15.06;100.00;101968.66;5035012;28;20033;-83
2023/09/06 02:08:16;;;;;;;12.02;9.30;;;;;;;15.05;100.00;101961.59;5034340;28;20108;-83
2023/09/06 02:10:41;;;;;;;14.30;10.30;;;;;;;15.03;100.00;101968.06;5034985;28;20037;-83
2023/09/06 02:13:07;;;;;;;15.75;9.45;;;;;;;15.02;100.00;101977.09;5034333;28;20076;-82
2023/09/06 02:15:32;;;;;;;13.30;9.52;;;;;;;15.02;100.00;101969.03;5034550;28;20038;-84
2023/09/06 02:17:57;;;;;;;11.82;9.45;;;;;;;15.01;100.00;101972.72;5034117;28;20049;-84
2023/09/06 02:20:27;;;;;;;14.43;10.15;;;;;;;14.98;100.00;101963.97;5034627;28;20037;-83
2023/09/06 02:22:56;;;;;;;12.75;9.45;;;;;;;14.96;100.00;101962.44;5034774;28;20057;-83
2023/09/06 02:25:25;;;;;;;14.50;9.88;;;;;;;14.96;100.00;101967.78;5034461;28;20401;-83
2023/09/06 02:27:50;;;;;;;14.82;9.63;;;;;;;14.95;100.00;101971.44;5034638;28;20152;-83
2023/09/06 02:30:17;;;;;;;11.90;9.52;;;;;;;14.92;100.00;101969.88;5034252;28;20305;-83
2023/09/06 02:32:42;;;;;;;15.43;9.88;;;;;;;14.90;100.00;101979.03;5031713;28;20038;-84
2023/09/06 02:35:08;;;;;;;14.18;9.95;;;;;;;14.90;100.00;101979.03;5034274;28;20052;-83
2023/09/06 02:37:34;;;;;;;13.80;10.77;;;;;;;14.90;100.00;101981.72;5034435;28;20033;-83
2023/09/06 02:39:59;;;;;;;25.08;11.80;;;;;;;14.88;100.00;101973.81;5033957;28;20083;-83
2023/09/06 02:42:26;;;;;;;13.43;10.93;;;;;;;14.88;100.00;101981.03;5033355;28;20037;-84
2023/09/06 02:44:54;;;;;;;16.98;11.73;;;;;;;14.87;100.00;101973.97;5031657;28;20121;-84
2023/09/06 02:47:25;;;;;;;16.17;11.63;;;;;;;14.87;100.00;101976.66;5014724;28;20060;-84
2023/09/06 02:49:55;;;;;;;20.30;12.65;;;;;;;14.85;100.00;101981.31;5032199;28;20030;-84
2023/09/06 02:52:30;;;;;;;12.40;10.03;;;;;;;14.83;100.00;101970.72;5031475;28;20136;-86
2023/09/06 02:55:09;;;;;;;;;;;;;;;;;;;;;
2023/09/06 02:57:35;;;;;;;13.63;9.63;;;;;;;14.83;100.00;101975.25;5033303;28;20128;-85
2023/09/06 03:02:48;;;;;;;14.73;10.63;;;;;;;14.83;100.00;101965.38;5032470;28;20072;-84
2023/09/06 03:05:17;;;;;;;14.60;10.20;;;;;;;14.82;100.00;101969.03;5032635;28;20434;-84
2023/09/06 03:07:46;;;;;;;12.02;9.75;;;;;;;14.78;100.00;101976.50;5031695;28;20057;-84
2023/09/06 03:10:16;;;;;;;12.38;9.98;;;;;;;14.77;100.00;101968.63;5030800;28;20042;-84
2023/09/06 03:12:43;;;;;;;19.73;11.18;;;;;;;14.77;100.00;101973.97;5015274;28;20029;-84
2023/09/06 03:15:12;;;;;;;12.70;10.40;;;;;;;14.74;100.00;101971.56;5031862;28;20481;-84
2023/09/06 03:17:38;;;;;;;16.70;10.90;;;;;;;14.74;100.00;101974.25;5031095;28;20421;-84
2023/09/06 03:20:19;;;;;;;13.90;10.20;;;;;;;14.72;100.00;101974.41;5030573;28;20036;-85
2023/09/06 03:22:52;;;;;;;15.65;10.30;;;;;;;14.68;100.00;101970.28;5030798;28;20134;-84
2023/09/06 03:25:28;;;;;;;15.18;10.30;;;;;;;14.65;100.00;101975.94;5030854;28;20124;-85
2023/09/06 03:28:00;;;;;;;14.32;10.55;;;;;;;14.64;100.00;101982.25;5030967;28;20038;-84
2023/09/06 03:30:31;;;;;;;13.23;10.48;;;;;;;14.61;100.00;101977.19;5015050;28;20068;-84
2023/09/06 03:33:05;;;;;;;13.93;10.00;;;;;;;14.59;100.00;101987.16;5030422;28;20327;-83
2023/09/06 03:35:33;;;;;;;13.57;10.38;;;;;;;14.57;100.00;101987.31;5031953;28;20109;-84
2023/09/06 03:37:59;;;;;;;13.25;10.00;;;;;;;14.55;100.00;101991.94;5030453;28;20033;-84
2023/09/06 03:40:42;;;;;;;13.88;11.35;;;;;;;14.55;100.00;101993.78;5029983;28;20394;-84
2023/09/06 03:43:17;;;;;;;14.48;10.80;;;;;;;14.53;100.00;101996.59;5030847;28;20049;-85
2023/09/06 03:45:51;;;;;;;16.00;11.63;;;;;;;14.50;100.00;101996.88;5030628;28;20033;-85
2023/09/06 03:48:22;;;;;;;15.30;11.43;;;;;;;14.53;100.00;101993.91;5031063;28;20076;-85
2023/09/06 03:50:53;;;;;;;13.98;10.93;;;;;;;14.54;100.00;101998.28;5030552;28;20064;-85
2023/09/06 03:53:23;;;;;;;14.85;11.45;;;;;;;14.53;100.00;101993.91;5031553;28;20033;-85
2023/09/06 03:55:49;;;;;;;17.50;11.02;;;;;;;14.52;100.00;101996.72;5030359;28;20037;-84
2023/09/06 03:58:17;;;;;;;14.65;11.15;;;;;;;14.51;100.00;101995.91;5030382;28;20033;-84
2023/09/06 04:00:48;;;;;;;15.52;12.20;;;;;;;14.52;100.00;101999.41;5014290;28;20037;-85
2023/09/06 04:03:18;;;;;;;16.65;11.75;;;;;;;14.49;100.00;102000.50;5030370;28;20061;-84
2023/09/06 04:05:46;;;;;;;16.52;11.35;;;;;;;14.49;100.00;102005.03;5031121;28;20486;-85
2023/09/06 04:08:18;;;;;;;18.63;12.65;;;;;;;14.47;100.00;102002.50;5014579;28;20091;-84
2023/09/06 04:10:49;;;;;;;14.82;11.20;;;;;;;14.42;100.00;101994.00;5032601;28;20029;-85
2023/09/06 04:13:17;;;;;;;16.88;11.80;;;;;;;14.42;100.00;101999.34;5035416;28;20373;-82
2023/09/06 04:15:52;;;;;;;14.80;11.93;;;;;;;14.41;100.00;102000.38;5031700;28;20025;-83
2023/09/06 04:18:18;;;;;;;15.80;11.35;;;;;;;14.39;100.00;101997.81;5031756;28;20029;-84
2023/09/06 04:20:49;;;;;;;17.75;11.93;;;;;;;14.38;100.00;102001.47;5030757;28;20034;-83
2023/09/06 04:23:16;;;;;;;16.83;11.95;;;;;;;14.33;100.00;101995.69;5031981;28;20042;-83
2023/09/06 04:25:43;;;;;;;17.27;12.65;;;;;;;14.32;100.00;101996.66;5031619;28;20029;-84
2023/09/06 04:28:20;;;;;;;;;;;;;;;;;;;;;
2023/09/06 04:30:46;;;;;;;16.30;11.77;;;;;;;14.31;100.00;101999.47;5031635;28;20027;-84
2023/09/06 04:33:14;;;;;;;17.15;11.95;;;;;;;14.28;100.00;102003.28;5031364;28;20033;-88
2023/09/06 04:35:48;;;;;;;16.33;12.25;;;;;;;14.25;100.00;101996.34;5031415;28;20034;-83
2023/09/06 04:38:15;;;;;;;16.92;12.45;;;;;;;14.27;100.00;101996.22;5030678;28;20029;-85
2023/09/06 04:40:45;;;;;;;15.50;12.18;;;;;;;14.25;100.00;102007.06;5030505;28;20493;-85
2023/09/06 04:43:19;;;;;;;16.30;11.20;;;;;;;14.24;100.00;102005.38;5029490;28;20037;-84
2023/09/06 04:45:49;;;;;;;16.00;11.85;;;;;;;14.24;100.00;102007.19;5030083;28;20025;-84
2023/09/06 04:48:18;;;;;;;16.48;12.90;;;;;;;14.22;100.00;102009.16;5029463;28;20091;-84
2023/09/06 04:50:45;;;;;;;19.50;13.23;;;;;;;14.21;100.00;102008.31;5031140;28;20021;-84
2023/09/06 04:53:11;;;;;;;18.63;14.27;;;;;;;14.19;100.00;102002.25;5029554;28;20030;-84
2023/09/06 04:55:55;;;;;;;16.10;11.68;;;;;;;14.21;100.00;102007.47;5031320;28;20505;-85
2023/09/06 04:58:20;;;;;;;16.13;11.88;;;;;;;14.18;100.00;102003.25;5018402;28;20041;-84
2023/09/06 05:01:11;;;;;;;17.35;13.55;;;;;;;14.18;100.00;102011.28;5034230;28;20026;-85
2023/09/06 05:03:38;;;;;;;17.27;12.35;;;;;;;14.18;100.00;102007.72;5034669;28;20077;-85
2023/09/06 05:06:05;;;;;;;19.17;13.60;;;;;;;14.17;100.00;102009.56;5033617;28;20366;-85
2023/09/06 05:08:32;;;;;;;18.52;13.43;;;;;;;14.19;100.00;102006.75;5033218;28;20120;-85
2023/09/06 05:11:02;;;;;;;16.13;12.18;;;;;;;14.17;100.00;102008.72;5033660;28;20033;-85
2023/09/06 05:13:28;;;;;;;17.02;12.15;;;;;;;14.17;100.00;102022.13;5017324;28;20501;-86
2023/09/06 05:16:05;;;;;;;18.42;13.05;;;;;;;14.17;100.00;102014.09;5033190;28;20071;-86
2023/09/06 05:18:31;;;;;;;17.63;12.10;;;;;;;14.17;100.00;102011.41;5017731;28;20049;-87
2023/09/06 05:20:59;;;;;;;15.73;11.68;;;;;;;14.17;100.00;102009.56;5033316;28;20147;-86
2023/09/06 05:23:28;;;;;;;14.77;12.30;;;;;;;14.18;100.00;102015.75;5033194;28;20029;-86
2023/09/06 05:26:05;;;;;;;15.43;12.20;;;;;;;14.21;100.00;102026.19;5034877;28;20124;-87
2023/09/06 05:28:33;;;;;;;17.95;12.00;;;;;;;14.20;100.00;102033.38;5034721;28;20037;-86
2023/09/06 05:31:01;;;;;;;17.20;12.55;;;;;;;14.23;100.00;102029.59;5034715;28;20144;-86
2023/09/06 05:33:27;;;;;;;20.75;13.55;;;;;;;14.23;100.00;102027.75;5033389;28;20029;-85
2023/09/06 05:35:54;;;;;;;20.23;14.55;;;;;;;14.26;100.00;102038.19;5037195;28;20045;-86
2023/09/06 05:38:42;;;;;;;22.25;14.88;;;;;;;14.30;100.00;102044.13;5034782;28;20032;-87
2023/09/06 05:41:11;;;;;;;19.77;14.10;;;;;;;14.32;100.00;102031.47;5032680;28;20124;-86
2023/09/06 05:43:36;;;;;;;18.33;14.20;;;;;;;14.39;100.00;102038.00;5033101;28;20083;-86
2023/09/06 05:46:04;;;;;;;17.15;13.23;;;;;;;14.40;100.00;102036.97;5032608;28;20064;-87
2023/09/06 05:48:32;;;;;;;17.52;13.43;;;;;;;14.42;100.00;102042.19;5033738;28;20029;-85
2023/09/06 05:50:58;;;;;;;19.95;12.32;;;;;;;14.46;100.00;102036.47;5032704;28;20056;-88
2023/09/06 05:53:26;;;;;;;15.07;11.85;;;;;;;14.49;100.00;102051.41;5032530;28;20442;-87
2023/09/06 05:55:56;;;;;;;16.13;12.57;;;;;;;14.54;100.00;102054.53;5015862;28;20048;-86
2023/09/06 05:58:35;;;;;;;;;;;;;;;;;;;;;
2023/09/06 06:01:08;;;;;;;16.15;12.77;;;;;;;14.64;100.00;102054.56;5033772;28;20034;-87
2023/09/06 06:03:36;;;;;;;16.10;13.05;;;;;;;14.70;100.00;102053.19;5033113;28;20077;-88
2023/09/06 06:06:11;;;;;;;;;;;;;;;;;;;;;
2023/09/06 06:08:45;;;;;;;20.33;14.10;;;;;;;14.81;100.00;102059.28;5034193;28;20033;-87
2023/09/06 06:11:12;;;;;;;20.55;15.68;;;;;;;14.88;100.00;102056.06;5032062;28;20075;-87
2023/09/06 06:13:41;;;;;;;20.92;15.55;;;;;;;14.93;100.00;102059.19;5031598;28;20138;-87
2023/09/06 06:16:14;;;;;;;21.58;13.55;;;;;;;14.99;100.00;102053.28;5032187;28;20422;-88
2023/09/06 06:18:47;;;;;;;18.25;12.63;;;;;;;15.06;100.00;102051.75;5031966;28;20037;-87
2023/09/06 06:21:20;;;;;;;17.25;12.55;;;;;;;15.14;100.00;102053.72;5034102;28;20029;-87
2023/09/06 06:23:48;;;;;;;16.58;11.57;;;;;;;15.22;100.00;102064.56;5031886;28;20457;-87
2023/09/06 06:26:15;;;;;;;18.85;12.98;;;;;;;15.28;100.00;102064.00;5031585;28;20437;-88
2023/09/06 06:28:43;;;;;;;16.38;12.18;;;;;;;15.34;100.00;102063.44;5031706;28;20355;-87
2023/09/06 06:31:13;;;;;;;19.35;11.80;;;;;;;15.44;100.00;102063.47;5032016;28;20446;-88
2023/09/06 06:33:43;;;;;;;14.97;11.23;;;;;;;15.51;100.00;102075.31;4998846;28;20044;-89
2023/09/06 06:36:11;;;;;;;17.65;11.77;;;;;;;15.59;100.00;102074.59;5031714;28;20044;-87
2023/09/06 06:38:40;;;;;;;13.63;10.40;;;;;;;15.71;100.00;102069.94;5031560;28;20037;-87
2023/09/06 06:41:26;;;;;;;19.15;11.65;;;;;;;15.80;100.00;102069.09;5031496;28;20030;-87
2023/09/06 06:44:02;;;;;;;15.68;10.70;;;;;;;15.93;100.00;102073.31;5031890;28;20033;-87
2023/09/06 06:46:35;;;;;;;19.45;12.63;;;;;;;16.03;100.00;102079.50;5014689;28;20033;-86
2023/09/06 06:49:09;;;;;;;16.20;11.75;;;;;;;16.15;100.00;102080.19;5033034;28;20125;-87
2023/09/06 06:51:40;;;;;;;14.98;11.32;;;;;;;16.25;100.00;102075.63;5031376;28;20338;-88
2023/09/06 06:54:08;;;;;;;;;;;;;;;16.36;100.00;102083.53;5031701;28;20031;-86
2023/09/06 06:56:37;;;;;;;13.75;10.23;;;;;;;16.45;100.00;102081.81;5031140;28;19909;-88
2023/09/06 06:59:14;;;;;;;15.57;10.65;;;;;;;16.56;100.00;102089.66;5031361;28;20040;-88
2023/09/06 07:01:43;;;;;;;17.65;10.55;;;;;;;16.67;100.00;102091.28;5031156;28;20068;-88
2023/09/06 07:04:18;;;;;;;15.88;11.05;;;;;;;16.79;100.00;102091.94;5030897;28;20541;-87
2023/09/06 07:06:49;;;;;;;18.95;11.32;;;;;;;16.91;100.00;102096.19;5000821;28;20065;-87
2023/09/06 07:09:14;;;;;;;15.93;10.48;;;;;;;17.03;100.00;102093.25;5015396;28;20111;-87
2023/09/06 07:11:49;;;;;;;15.07;11.23;;;;;;;17.13;100.00;102085.97;5031163;28;20450;-87
2023/09/06 07:14:17;;;;;;;15.75;10.98;;;;;;;17.28;100.00;102094.38;5015635;28;20061;-87
2023/09/06 07:16:43;;;;;;;16.13;10.88;;;;;;;17.39;100.00;102101.34;5030746;28;20032;-88
2023/09/06 07:19:17;;;;;;;13.52;10.07;;;;;;;17.53;100.00;102097.31;5030369;28;20041;-88
2023/09/06 07:21:46;;;;;;;14.57;10.45;;;;;;;17.61;100.00;102094.66;5014856;28;20323;-87
2023/09/06 07:24:15;;;;;;;16.45;10.65;;;;;;;17.71;100.00;102094.59;5014317;28;20541;-87
2023/09/06 07:26:43;;;;;;;14.20;10.50;;;;;;;17.81;100.00;102098.03;5030693;28;20108;-88
2023/09/06 07:29:20;;;;;;;13.00;10.15;;;;;;;17.92;100.00;102103.19;5030590;28;20075;-88
2023/09/06 07:31:48;;;;;;;14.65;10.20;;;;;;;18.06;100.00;102107.16;5015265;28;20033;-87
2023/09/06 07:34:15;;;;;;;15.88;10.10;;;;;;;18.16;100.00;102109.75;5030508;28;20033;-87
2023/09/06 07:36:44;;;;;;;13.02;10.38;;;;;;;18.27;100.00;102104.13;5013693;28;20049;-87
2023/09/06 07:39:14;;;;;;;13.88;9.25;;;;;;;18.40;100.00;102105.53;5031920;28;20052;-86
2023/09/06 07:41:47;;;;;;;13.52;9.00;;;;;;;18.55;100.00;102105.78;5014357;28;20055;-88
2023/09/06 07:44:12;;;;;;;11.18;9.20;;;;;;;18.67;100.00;102102.63;5014626;28;20053;-88
2023/09/06 07:46:43;;;;;;;13.48;9.02;;;;;;;18.83;100.00;102109.09;5030270;28;20063;-87
2023/09/06 07:49:14;;;;;;;12.63;8.13;;;;;;;18.97;100.00;102102.25;5030451;28;20458;-86
2023/09/06 07:51:45;;;;;;;11.35;8.90;;;;;;;19.11;100.00;102103.47;5030008;28;20044;-86
2023/09/06 07:54:14;;;;;;;12.53;8.57;;;;;;;19.28;100.00;102102.50;5014494;28;20061;-86
2023/09/06 07:56:49;;;;;;;13.32;9.75;;;;;;;19.44;100.00;102108.94;5029960;28;20275;-86
2023/09/06 07:59:21;;;;;;;13.20;8.98;;;;;;;19.57;100.00;102095.75;5030291;28;20056;-88
2023/09/06 08:01:47;;;;;;;13.93;8.57;;;;;;;19.79;100.00;102104.25;5029937;28;20087;-87
2023/09/06 08:04:12;;;;;;;9.68;7.97;;;;;;;19.97;100.00;102102.19;5013442;28;20421;-87
2023/09/06 08:06:42;;;;;;;18.60;7.97;;;;;;;20.20;100.00;102104.22;5046477;28;20124;-87
2023/09/06 08:09:10;;;;;;;11.82;8.48;;;;;;;20.42;100.00;102102.59;5013667;28;20122;-87
2023/09/06 08:11:38;;;;;;;13.02;8.45;;;;;;;20.88;100.00;102094.66;5045998;28;20029;-85
2023/09/06 08:14:03;;;;;;;14.25;7.90;;;;;;;21.52;100.00;102096.31;5029690;28;20163;-86
2023/09/06 08:16:41;;;;;;;11.50;7.97;;;;;;;22.02;100.00;102094.03;5029770;28;20207;-87
2023/09/06 08:19:09;;;;;;;12.77;7.93;;;;;;;22.39;100.00;102086.88;5030046;28;20446;-86
2023/09/06 08:21:37;;;;;;;10.50;6.88;;;;;;;22.69;100.00;102098.56;5029654;28;20183;-87
2023/09/06 08:24:03;;;;;;;12.48;7.20;;;;;;;22.94;100.00;102105.50;5029859;28;20041;-86
2023/09/06 08:26:31;;;;;;;11.38;6.88;;;;;;;23.22;100.00;102101.06;5030072;28;20480;-86
2023/09/06 08:28:57;;;;;;;12.93;7.00;;;;;;;23.46;100.00;102098.16;5029714;28;20124;-87
2023/09/06 08:31:25;;;;;;;17.15;6.20;;;;;;;23.70;100.00;102102.34;5030266;28;20105;-87
2023/09/06 08:34:00;;;;;;;14.25;7.07;;;;;;;23.93;100.00;102097.56;5029973;28;20038;-86
2023/09/06 08:36:26;;;;;;;18.40;6.68;;;;;;;24.05;100.00;102099.72;5030359;28;20065;-87
2023/09/06 08:39:05;;;;;;;;;;;;;;;;;;;;;
2023/09/06 08:41:31;;;;;;;10.20;6.35;;;;;;;24.44;100.00;102092.84;5031422;28;20472;-87
2023/09/06 08:44:06;;;;;;;10.88;6.32;;;;;;;24.76;100.00;102094.06;5029756;28;20120;-88
2023/09/06 08:46:42;;;;;;;14.85;6.28;;;;;;;25.30;100.00;102094.25;5031126;28;20060;-87
2023/09/06 08:49:08;;;;;;;12.98;6.47;;;;;;;25.99;100.00;102086.72;5030874;28;20514;-87
2023/09/06 08:51:36;;;;;;;10.77;6.03;;;;;;;26.77;100.00;102094.06;5029361;28;20033;-87
2023/09/06 08:54:15;;;;;;;11.75;6.07;;;;;;;27.69;100.00;102092.88;5029504;28;20034;-89
2023/09/06 08:56:44;;;;;;;10.90;6.30;;;;;;;28.37;100.00;102088.44;5029328;28;20419;-87
2023/09/06 08:59:12;;;;;;;9.27;6.13;;;;;;;29.08;100.00;102092.38;5029120;28;20080;-87
2023/09/06 09:01:37;;;;;;;11.48;6.13;;;;;;;29.52;100.00;102092.13;5030316;28;20030;-87
2023/09/06 09:04:06;;;;;;;15.60;5.80;;;;;;;30.13;100.00;102089.22;5028736;28;20091;-87
2023/09/06 09:06:36;;;;;;;11.68;6.20;;;;;;;30.52;100.00;102093.06;5012922;28;20074;-85
2023/09/06 09:09:20;;;;;;;11.93;5.85;;;;;;;30.87;94.98;102092.13;5013004;28;20033;-84
2023/09/06 09:11:50;;;;;;;17.20;5.57;;;;;;;31.33;92.10;102091.31;5029167;28;20556;-85
2023/09/06 09:14:23;;;;;;;13.00;5.47;;;;;;;31.55;89.63;102100.50;5028715;28;20033;-86
2023/09/06 09:17:02;;;;;;;10.48;5.85;;;;;;;31.55;81.89;102094.16;5028614;28;20117;-86
2023/09/06 09:19:30;;;;;;;7.57;5.55;;;;;;;31.49;81.31;102095.97;5028862;28;20091;-87
2023/09/06 09:21:55;;;;;;;14.38;5.80;;;;;;;31.18;80.26;102089.94;5045553;28;20057;-85
2023/09/06 09:24:29;;;;;;;16.02;5.72;;;;;;;31.35;80.32;102086.38;5030075;28;20076;-86
2023/09/06 09:26:58;;;;;;;17.00;5.50;;;;;;;31.39;86.87;102082.88;5028923;28;20133;-82
2023/09/06 09:29:25;;;;;;;12.45;5.32;;;;;;;31.80;82.94;102088.25;5028342;28;20037;-84
2023/09/06 09:31:51;;;;;;;13.05;4.93;;;;;;;32.06;78.26;102086.69;5028750;28;20116;-85
2023/09/06 09:34:17;;;;;;;11.95;4.85;;;;;;;32.28;77.17;102089.47;5028875;28;20429;-85
2023/09/06 09:36:50;;;;;;;11.05;4.68;;;;;;;32.21;70.92;102086.09;5028637;28;20442;-88
2023/09/06 09:39:27;;;;;;;7.93;4.82;;;;;;;32.27;68.39;102089.75;5028893;28;20029;-87
2023/09/06 09:41:59;;;;;;;10.10;4.63;;;;;;;32.42;70.79;102089.09;5028402;28;20047;-87
2023/09/06 09:44:27;;;;;;;10.13;4.55;;;;;;;32.73;71.95;102090.31;5016423;28;20415;-87
2023/09/06 09:46:58;;;;;;;10.10;4.90;;;;;;;32.60;66.33;102090.69;5015855;28;20136;-87
2023/09/06 09:49:26;;;;;;;7.93;4.60;;;;;;;32.80;68.55;102098.38;5016513;28;20342;-86
2023/09/06 09:51:54;;;;;;;8.50;4.50;;;;;;;33.04;68.65;102088.72;5032608;28;20030;-86
2023/09/06 09:54:23;;;;;;;9.05;4.30;;;;;;;33.23;62.57;102080.06;5031997;28;20032;-86
2023/09/06 09:57:05;;;;;;;11.32;4.28;;;;;;;33.18;66.81;102083.59;5032102;28;20077;-86
2023/09/06 09:59:33;;;;;;;8.00;4.50;;;;;;;33.00;64.50;102093.06;5033475;28;20033;-85
2023/09/06 10:02:00;;;;;;;9.73;4.93;;;;;;;33.08;57.77;102090.94;5032743;28;20116;-86
2023/09/06 10:04:28;;;;;;;7.68;4.20;;;;;;;32.98;62.95;102089.75;5032015;28;20039;-86
2023/09/06 10:06:55;;;;;;;7.15;4.32;;;;;;;33.25;60.30;102088.94;5031720;28;20461;-88
2023/09/06 10:09:21;;;;;;;13.13;4.40;;;;;;;33.56;59.07;102087.25;5031650;28;20330;-85
2023/09/06 10:11:57;;;;;;;7.55;4.30;;;;;;;33.62;57.80;102096.41;5031714;28;20454;-87
2023/09/06 10:14:28;;;;;;;11.00;4.25;;;;;;;33.68;60.50;102083.44;5031460;28;20117;-85
2023/09/06 10:16:58;;;;;;;12.00;4.78;;;;;;;33.57;56.17;102083.38;5031818;28;20036;-85
2023/09/06 10:19:24;;;;;;;10.35;4.45;;;;;;;33.68;60.78;102078.78;5031760;28;20091;-85
2023/09/06 10:21:51;;;;;;;7.55;4.70;;;;;;;33.75;54.76;102078.56;5031300;28;20029;-86
2023/09/06 10:24:20;;;;;;;10.75;4.38;;;;;;;33.61;60.02;102080.94;5032700;28;20037;-85
2023/09/06 10:26:49;;;;;;;12.05;4.18;;;;;;;33.64;59.73;102074.06;5032585;28;20048;-84
2023/09/06 10:29:22;;;;;;;7.10;3.38;;;;;;;33.78;63.84;102072.50;5015058;28;20033;-91
2023/09/06 10:31:52;;;;;;;10.05;4.28;;;;;;;33.66;57.80;102075.44;5031713;28;20029;-85
2023/09/06 10:34:18;;;;;;;6.80;3.90;;;;;;;33.80;63.13;102064.81;5031352;28;20151;-86
2023/09/06 10:36:52;;;;;;;6.60;3.80;;;;;;;34.04;59.93;102073.50;5031307;28;20484;-87
2023/09/06 10:39:21;;;;;;;6.32;3.80;;;;;;;33.97;58.36;102072.91;5031155;28;20025;-84
2023/09/06 10:42:09;;;;;;;6.70;3.50;;;;;;;34.14;58.54;102074.63;5031195;28;20448;-85
2023/09/06 10:45:00;;;;;;;8.02;3.95;;;;;;;34.28;59.28;102070.31;5031389;28;20032;-85
2023/09/06 10:47:31;;;;;;;9.45;3.58;;;;;;;34.00;54.62;102061.31;5028419;28;20057;-85
2023/09/06 10:50:15;;;;;;;;;;;;;;;34.03;61.23;102063.53;5031365;28;20033;-84
2023/09/06 10:52:51;;;;;;;5.15;3.17;;;;;;;34.08;53.69;102069.09;5030921;28;19913;-84
2023/09/06 10:55:23;;;;;;;6.80;3.40;;;;;;;34.05;57.16;102072.41;5030092;28;20361;-84
2023/09/06 10:57:56;;;;;;;5.18;3.10;;;;;;;33.92;57.15;102068.19;5030938;28;20021;-86
2023/09/06 11:00:27;;;;;;;9.10;2.92;;;;;;;33.70;53.73;102071.06;5031075;28;20033;-87
2023/09/06 11:03:14;;;;;;;6.80;2.88;;;;;;;33.67;56.01;102065.25;5032059;28;20046;-84
2023/09/06 11:05:50;;;;;;;5.80;2.75;;;;;;;33.68;55.90;102066.88;5030889;28;20033;-84
2023/09/06 11:08:24;;;;;;;5.03;3.10;;;;;;;33.36;53.10;102071.34;5030785;28;20469;-87
2023/09/06 11:10:50;;;;;;;5.57;3.00;;;;;;;33.43;55.46;102070.28;5030400;28;20033;-85
2023/09/06 11:13:18;;;;;;;4.38;2.90;;;;;;;33.28;62.28;102071.84;5030251;28;20091;-84
2023/09/06 11:15:43;;;;;;;4.28;2.80;;;;;;;33.50;60.64;102073.66;5030529;28;20112;-84
2023/09/06 11:18:13;;;;;;;6.07;2.70;;;;;;;33.60;61.17;102065.47;5014370;28;20079;-84
2023/09/06 11:20:39;;;;;;;5.78;2.70;;;;;;;33.54;60.73;102063.78;5014412;28;20072;-83
2023/09/06 11:23:05;;;;;;;4.88;2.80;;;;;;;33.70;59.04;102071.06;5030639;28;20434;-88
2023/09/06 11:25:31;;;;;;;3.97;3.00;;;;;;;33.57;57.83;102066.00;5031760;28;20039;-84
2023/09/06 11:28:02;;;;;;;4.25;2.80;;;;;;;33.77;61.37;102059.84;5032058;28;20132;-86
2023/09/06 11:30:31;;;;;;;;;;;;;;;33.93;59.34;102069.00;5030996;28;20061;-84